Shanghai Express — DPCK — position and weather

sailwx.info

Track history (hours):
 
Tides and Currents Weather Stations Pressure Air Temp Water Temp Dewpoint Dewpoint Depression Visibility Wind Speed Wind Dir Waves Ship Positions

Shanghai Express

Last reported at 2016-Feb-10 11:33 UTC. Time now 2016-Feb-11 15:10 UTC.
Position N 35°59' W 005°17'.

Length 320.6 m; beam 42.8 m; draft 14.5 m.

Type: Ship. MMSI: 211367460.

Date/timePositionNaut miles runAvg speedWind from/ knotsBaromVisibWave heightAir tempDewpointWater temp
2016-Feb-10 11:33N 35°59' W 005°17'41817.8
2016-Feb-09 12:00N 36°24' W 013°54'21818.2 250 / 161032.010.8 1.019.514.717.0
2016-Feb-09 00:00N 37°18' W 018°18'21618.0 250 / 181031.010.8 17.514.316.0
2016-Feb-08 12:00N 38°12' W 022°42'7018.7 230 / 131030.010.8 1.016.513.216.0
2016-Feb-08 08:14N 38°32' W 024°08'1217.3
2016-Feb-08 07:33N 38°35' W 024°23'1817.5
2016-Feb-08 06:33N 38°39' W 024°44'1818.0
2016-Feb-08 05:33N 38°44' W 025°06'1817.8
2016-Feb-08 04:33N 38°49' W 025°28'1817.9
2016-Feb-08 03:33N 38°53' W 025°51'1818.3
2016-Feb-08 02:33N 38°58' W 026°13'1818.0
2016-Feb-08 01:33N 39°03' W 026°36'1818.0
2016-Feb-08 00:33N 39°08' W 026°58'1818.1
2016-Feb-07 23:33N 39°12' W 027°21'1817.9
2016-Feb-07 22:34N 39°17' W 027°43'1818.2
2016-Feb-07 21:33N 39°22' W 028°06'1817.9
2016-Feb-07 20:33N 39°26' W 028°28'1817.9
2016-Feb-07 19:33N 39°31' W 028°50'1817.8
2016-Feb-07 18:34N 39°36' W 029°13'1817.9
2016-Feb-07 17:33N 39°40' W 029°35'1817.8
2016-Feb-07 16:34N 39°45' W 029°57'1918.0
2016-Feb-07 15:31N 39°50' W 030°21'1717.9
2016-Feb-07 14:33N 39°54' W 030°43'1818.1
2016-Feb-07 13:34N 39°59' W 031°05'1918.2
2016-Feb-07 12:32N 40°02' W 031°29'610.6
2016-Feb-07 12:00N 40°00' W 031°36'1725.8 230 / 151027.510.8 1.016.513.215.0
2016-Feb-07 11:19N 40°06' W 031°57'1418.0
2016-Feb-07 10:32N 40°08' W 032°16'1818.0
2016-Feb-07 09:33N 40°11' W 032°38'38517.9
2016-Feb-06 12:00N 41°12' W 041°00'   230 / 201027.010.8 1.016.514.915.0
2016-Feb-01 09:33N 36°53' W 075°54'10 9.9
2016-Feb-01 08:33N 36°58' W 076°05'1211.7
2016-Feb-01 07:30N 36°57' W 076°20'2 2.5
2016-Feb-01 06:31N 36°55' W 076°20'0 0.0
2016-Feb-01 05:27N 36°55' W 076°20'0 0.0
2016-Feb-01 04:33N 36°55' W 076°20'0 0.0
2016-Feb-01 03:32N 36°55' W 076°20'0 0.0
2016-Feb-01 02:29N 36°55' W 076°20'0 0.0
2016-Feb-01 01:20N 36°55' W 076°20'0 0.0
2016-Jan-31 23:31N 36°55' W 076°20'0 0.0
2016-Jan-31 22:33N 36°55' W 076°20'0 0.0
2016-Jan-31 21:20N 36°55' W 076°20'0 0.0
2016-Jan-31 20:32N 36°55' W 076°20'0 0.0
2016-Jan-31 19:31N 36°55' W 076°20'0 0.0
2016-Jan-31 18:31N 36°55' W 076°20'0 0.0
2016-Jan-31 16:33N 36°55' W 076°20'3 2.5
2016-Jan-31 15:33N 36°57' W 076°20'1212.3
2016-Jan-31 14:33N 36°58' W 076°05'  
Track history (hours):
 
Tides and Currents Weather Stations Pressure Air Temp Water Temp Dewpoint Dewpoint Depression Visibility Wind Speed Wind Dir Waves Ship Positions

Shanghai Express

Last reported at 2016-Feb-10 11:33 UTC. Time now 2016-Feb-11 15:10 UTC.
Position N 35°59' W 005°17'.

Length 320.6 m; beam 42.8 m; draft 14.5 m.

Type: Ship. MMSI: 211367460.

Date/timePositionNaut miles runAvg speedWind from/ knotsBaromVisibWave heightAir tempDewpointWater temp
2016-Feb-10 11:33N 35°59' W 005°17'41817.8
2016-Feb-09 12:00N 36°24' W 013°54'21818.2 250 / 161032.010.8 1.019.514.717.0
2016-Feb-09 00:00N 37°18' W 018°18'21618.0 250 / 181031.010.8 17.514.316.0
2016-Feb-08 12:00N 38°12' W 022°42'7018.7 230 / 131030.010.8 1.016.513.216.0
2016-Feb-08 08:14N 38°32' W 024°08'1217.3
2016-Feb-08 07:33N 38°35' W 024°23'1817.5
2016-Feb-08 06:33N 38°39' W 024°44'1818.0
2016-Feb-08 05:33N 38°44' W 025°06'1817.8
2016-Feb-08 04:33N 38°49' W 025°28'1817.9
2016-Feb-08 03:33N 38°53' W 025°51'1818.3
2016-Feb-08 02:33N 38°58' W 026°13'1818.0
2016-Feb-08 01:33N 39°03' W 026°36'1818.0
2016-Feb-08 00:33N 39°08' W 026°58'1818.1
2016-Feb-07 23:33N 39°12' W 027°21'1817.9
2016-Feb-07 22:34N 39°17' W 027°43'1818.2
2016-Feb-07 21:33N 39°22' W 028°06'1817.9
2016-Feb-07 20:33N 39°26' W 028°28'1817.9
2016-Feb-07 19:33N 39°31' W 028°50'1817.8
2016-Feb-07 18:34N 39°36' W 029°13'1817.9
2016-Feb-07 17:33N 39°40' W 029°35'1817.8
2016-Feb-07 16:34N 39°45' W 029°57'1918.0
2016-Feb-07 15:31N 39°50' W 030°21'1717.9
2016-Feb-07 14:33N 39°54' W 030°43'1818.1
2016-Feb-07 13:34N 39°59' W 031°05'1918.2
2016-Feb-07 12:32N 40°02' W 031°29'610.6
2016-Feb-07 12:00N 40°00' W 031°36'1725.8 230 / 151027.510.8 1.016.513.215.0
2016-Feb-07 11:19N 40°06' W 031°57'1418.0
2016-Feb-07 10:32N 40°08' W 032°16'1818.0
2016-Feb-07 09:33N 40°11' W 032°38'38517.9
2016-Feb-06 12:00N 41°12' W 041°00'   230 / 201027.010.8 1.016.514.915.0
2016-Feb-01 09:33N 36°53' W 075°54'10 9.9
2016-Feb-01 08:33N 36°58' W 076°05'1211.7
2016-Feb-01 07:30N 36°57' W 076°20'2 2.5
2016-Feb-01 06:31N 36°55' W 076°20'0 0.0
2016-Feb-01 05:27N 36°55' W 076°20'0 0.0
2016-Feb-01 04:33N 36°55' W 076°20'0 0.0
2016-Feb-01 03:32N 36°55' W 076°20'0 0.0
2016-Feb-01 02:29N 36°55' W 076°20'0 0.0
2016-Feb-01 01:20N 36°55' W 076°20'0 0.0
2016-Jan-31 23:31N 36°55' W 076°20'0 0.0
2016-Jan-31 22:33N 36°55' W 076°20'0 0.0
2016-Jan-31 21:20N 36°55' W 076°20'0 0.0
2016-Jan-31 20:32N 36°55' W 076°20'0 0.0
2016-Jan-31 19:31N 36°55' W 076°20'0 0.0
2016-Jan-31 18:31N 36°55' W 076°20'0 0.0
2016-Jan-31 16:33N 36°55' W 076°20'3 2.5
2016-Jan-31 15:33N 36°57' W 076°20'1212.3
2016-Jan-31 14:33N 36°58' W 076°05'  

Dump ship's entire track history